createdAt,value
2023-04-11T00:02:23.602Z,93.20
2023-04-11T00:03:57.558Z,92.89
2023-04-11T00:05:33.275Z,92.83
2023-04-11T00:07:06.168Z,92.79
2023-04-11T00:08:38.368Z,92.88
2023-04-11T00:10:11.048Z,92.75
2023-04-11T00:11:43.726Z,92.75
2023-04-11T00:13:15.830Z,92.87
2023-04-11T00:14:49.400Z,93.04
2023-04-11T00:16:21.470Z,92.65
2023-04-11T00:17:55.283Z,92.76
2023-04-11T00:19:28.649Z,92.84
2023-04-11T00:21:00.732Z,92.75
2023-04-11T00:22:33.995Z,92.65
2023-04-11T00:24:09.147Z,92.67
2023-04-11T00:25:41.206Z,92.85
2023-04-11T00:27:13.244Z,92.94
2023-04-11T00:28:48.320Z,92.65
2023-04-11T00:30:20.496Z,92.61
2023-04-11T00:32:17.205Z,92.71
2023-04-11T00:33:49.346Z,92.42
2023-04-11T00:35:21.673Z,92.44
2023-04-11T00:36:56.352Z,92.50
2023-04-11T00:38:28.445Z,92.29
2023-04-11T00:40:00.635Z,92.26
2023-04-11T00:41:32.755Z,92.06
2023-04-11T00:43:04.867Z,92.14
2023-04-11T00:44:37.129Z,91.83
2023-04-11T00:46:09.849Z,91.88
2023-04-11T00:47:42.685Z,92.03
2023-04-11T00:49:14.856Z,92.11
2023-04-11T00:50:46.946Z,92.25
2023-04-11T00:52:19.798Z,92.33
2023-04-11T00:53:51.931Z,92.39
2023-04-11T00:55:24.213Z,92.41
2023-04-11T00:57:03.303Z,92.52
2023-04-11T00:58:37.909Z,92.56
2023-04-11T01:00:11.347Z,92.87
2023-04-11T01:01:43.817Z,92.50
2023-04-11T01:03:16.469Z,92.67
2023-04-11T01:04:48.928Z,92.74
2023-04-11T01:06:23.124Z,92.81
2023-04-11T01:07:56.230Z,92.97
2023-04-11T01:09:29.213Z,92.92
2023-04-11T01:11:03.132Z,93.16
2023-04-11T01:12:35.456Z,92.99
2023-04-11T01:14:07.684Z,93.33
2023-04-11T01:15:39.878Z,93.44
2023-04-11T01:17:13.674Z,93.46
2023-04-11T01:18:45.845Z,93.40
2023-04-11T01:20:18.065Z,93.62
2023-04-11T01:21:51.583Z,93.75
2023-04-11T01:23:24.124Z,93.51
2023-04-11T01:24:56.922Z,93.98
2023-04-11T01:26:29.120Z,94.06
2023-04-11T01:28:01.359Z,94.01
2023-04-11T01:29:33.507Z,93.82
2023-04-11T01:31:06.550Z,93.94
2023-04-11T01:32:41.957Z,93.90
2023-04-11T01:34:15.798Z,93.81
2023-04-11T01:35:48.108Z,93.88
2023-04-11T01:37:20.263Z,94.02
2023-04-11T01:38:52.320Z,93.99
2023-04-11T01:40:24.627Z,94.03
2023-04-11T01:41:58.194Z,94.05
2023-04-11T01:43:30.289Z,94.10
2023-04-11T01:45:04.116Z,94.18
2023-04-11T01:46:36.462Z,94.14
2023-04-11T01:48:08.984Z,94.28
2023-04-11T01:49:43.908Z,94.17
2023-04-11T01:51:16.284Z,94.02
2023-04-11T01:52:49.212Z,94.06
2023-04-11T01:54:21.424Z,94.07
2023-04-11T01:55:53.526Z,94.22
2023-04-11T01:57:25.736Z,94.22
2023-04-11T01:58:59.502Z,94.00
2023-04-11T02:00:32.910Z,94.22
2023-04-11T02:02:04.981Z,94.01
2023-04-11T02:03:37.306Z,93.90
2023-04-11T02:05:09.700Z,94.06
2023-04-11T02:06:41.894Z,93.96
2023-04-11T02:08:14.105Z,94.17
2023-04-11T02:09:46.309Z,93.73
2023-04-11T02:11:18.398Z,94.03
2023-04-11T02:12:50.532Z,94.02
2023-04-11T02:14:22.676Z,94.05
2023-04-11T02:15:54.677Z,94.00
2023-04-11T02:17:31.422Z,93.71
2023-04-11T02:19:04.204Z,93.75
2023-04-11T02:20:40.990Z,93.74
2023-04-11T02:22:13.607Z,93.92
2023-04-11T02:23:45.695Z,93.95
2023-04-11T02:25:17.822Z,93.95
2023-04-11T02:26:49.907Z,94.02
2023-04-11T02:28:22.906Z,94.17
2023-04-11T02:29:55.043Z,94.13
2023-04-11T02:31:27.314Z,93.92
2023-04-11T02:34:31.363Z,93.10
2023-04-11T02:36:03.579Z,92.71
2023-04-11T02:37:36.248Z,92.66
2023-04-11T02:39:08.401Z,92.25
2023-04-11T02:40:40.793Z,92.02
2023-04-11T02:42:13.672Z,92.23
2023-04-11T02:43:45.803Z,91.77
2023-04-11T02:45:18.028Z,91.79
2023-04-11T02:46:50.333Z,91.92
2023-04-11T02:48:23.198Z,91.96
2023-04-11T02:49:55.418Z,92.08
2023-04-11T02:51:27.695Z,92.32
2023-04-11T02:52:59.907Z,92.23
2023-04-11T02:54:31.946Z,92.47
2023-04-11T02:56:04.146Z,92.46
2023-04-11T02:57:36.379Z,92.60
2023-04-11T02:59:08.493Z,92.64
2023-04-11T03:00:40.604Z,92.51
2023-04-11T03:02:12.821Z,92.63
2023-04-11T03:03:45.519Z,92.39
2023-04-11T03:05:17.680Z,92.34
2023-04-11T03:06:49.932Z,92.35
2023-04-11T03:08:22.574Z,92.33
2023-04-11T03:09:54.722Z,92.36
2023-04-11T03:11:26.866Z,92.65
2023-04-11T03:12:59.000Z,92.63
2023-04-11T03:14:31.267Z,92.71
2023-04-11T03:16:04.075Z,92.50
2023-04-11T03:17:36.619Z,92.68
2023-04-11T03:19:08.702Z,92.56
2023-04-11T03:20:40.770Z,92.62
2023-04-11T03:22:12.958Z,92.46
2023-04-11T03:23:45.068Z,92.62
2023-04-11T03:25:17.442Z,92.72
2023-04-11T03:26:49.655Z,92.64
2023-04-11T03:28:21.802Z,92.73
2023-04-11T03:29:53.986Z,92.67
2023-04-11T03:31:26.322Z,92.77
2023-04-11T03:33:01.527Z,92.89
2023-04-11T03:34:33.700Z,93.13
2023-04-11T03:36:06.838Z,93.12
2023-04-11T03:37:38.992Z,92.87
2023-04-11T03:39:11.355Z,93.02
2023-04-11T03:40:43.484Z,93.17
2023-04-11T03:42:16.556Z,93.03
2023-04-11T03:43:48.775Z,92.90
2023-04-11T03:45:20.917Z,93.08
2023-04-11T03:46:53.115Z,92.96
2023-04-11T03:48:30.140Z,92.88
2023-04-11T03:50:02.238Z,92.86
2023-04-11T03:51:34.383Z,92.89
2023-04-11T03:53:07.498Z,93.10
2023-04-11T03:54:39.625Z,92.83
2023-04-11T03:56:11.789Z,92.68
2023-04-11T03:57:43.819Z,92.91
2023-04-11T03:59:16.104Z,92.85
2023-04-11T04:00:48.477Z,92.80
2023-04-11T04:02:20.703Z,92.77
2023-04-11T04:03:53.042Z,92.70
2023-04-11T04:05:25.398Z,92.94
2023-04-11T04:06:57.626Z,92.58
2023-04-11T04:08:29.726Z,92.58
2023-04-11T04:10:01.908Z,92.60
2023-04-11T04:11:34.029Z,92.63
2023-04-11T04:13:06.305Z,92.32
2023-04-11T04:14:38.429Z,92.42
2023-04-11T04:16:10.698Z,92.46
2023-04-11T04:17:43.107Z,92.47
2023-04-11T04:19:15.262Z,92.48
2023-04-11T04:20:47.815Z,92.74
2023-04-11T04:22:19.894Z,92.53
2023-04-11T04:23:51.997Z,92.64
2023-04-11T04:25:25.949Z,92.51
2023-04-11T04:27:01.280Z,92.79
2023-04-11T04:28:33.524Z,92.40
2023-04-11T04:30:07.455Z,92.56
2023-04-11T04:31:39.600Z,92.64
2023-04-11T04:33:12.710Z,92.60
2023-04-11T04:34:47.281Z,92.62
2023-04-11T04:36:19.446Z,92.42
2023-04-11T04:37:52.192Z,92.44
2023-04-11T04:39:25.913Z,92.45
2023-04-11T04:40:58.061Z,92.65
2023-04-11T04:42:30.562Z,92.50
2023-04-11T04:44:05.743Z,92.41
2023-04-11T04:45:37.957Z,92.54
2023-04-11T04:47:10.046Z,92.63
2023-04-11T04:48:42.226Z,92.72
2023-04-11T04:50:14.351Z,92.53
2023-04-11T04:51:47.071Z,92.99
2023-04-11T04:53:19.473Z,92.90
2023-04-11T04:54:51.803Z,93.16
2023-04-11T04:56:24.264Z,93.34
2023-04-11T04:57:56.679Z,92.91
2023-04-11T04:59:28.864Z,93.12
2023-04-11T05:01:02.992Z,93.18
2023-04-11T05:02:35.196Z,93.14
2023-04-11T05:04:07.406Z,93.24
2023-04-11T05:05:39.738Z,93.34
2023-04-11T05:07:14.397Z,93.25
2023-04-11T05:08:46.917Z,93.53
2023-04-11T05:10:19.089Z,93.68
2023-04-11T05:11:51.435Z,93.55
2023-04-11T05:13:23.629Z,93.60
2023-04-11T05:14:57.049Z,93.39
2023-04-11T05:16:29.026Z,93.38
2023-04-11T05:18:01.449Z,93.23
2023-04-11T05:19:33.778Z,93.27
2023-04-11T05:21:06.280Z,93.00
2023-04-11T05:22:38.486Z,93.20
2023-04-11T05:24:10.611Z,93.21
2023-04-11T05:25:42.781Z,93.25
2023-04-11T05:27:14.860Z,93.17
2023-04-11T05:28:47.408Z,93.06
2023-04-11T05:30:19.527Z,92.74
2023-04-11T05:31:51.692Z,92.64
2023-04-11T05:33:25.152Z,92.55
2023-04-11T05:34:59.261Z,91.94
2023-04-11T05:36:31.718Z,91.99
2023-04-11T05:38:03.884Z,91.27
2023-04-11T05:39:35.986Z,91.40
2023-04-11T05:41:09.135Z,91.47
2023-04-11T05:42:41.276Z,90.79
2023-04-11T05:44:13.432Z,89.27
2023-04-11T05:45:49.090Z,86.74
2023-04-11T05:47:21.245Z,86.56
2023-04-11T05:48:53.359Z,86.49
2023-04-11T05:50:27.152Z,86.70
2023-04-11T05:53:32.370Z,86.40
2023-04-11T05:55:05.010Z,85.61
2023-04-11T05:56:40.085Z,84.68
2023-04-11T05:58:12.227Z,85.40
2023-04-11T05:59:44.304Z,85.70
2023-04-11T06:01:19.569Z,86.08
2023-04-11T06:02:52.309Z,84.12
2023-04-11T06:04:24.983Z,82.70
2023-04-11T06:05:57.264Z,82.66
2023-04-11T06:07:29.432Z,82.11
2023-04-11T06:09:01.800Z,82.09
2023-04-11T06:10:35.762Z,81.43
2023-04-11T06:12:08.408Z,81.47
2023-04-11T06:13:40.538Z,81.03
2023-04-11T06:15:14.170Z,79.66
2023-04-11T06:16:48.359Z,80.04
2023-04-11T06:18:20.543Z,79.44
2023-04-11T06:19:52.641Z,79.35
2023-04-11T06:21:29.070Z,79.13
2023-04-11T06:23:01.877Z,77.88
2023-04-11T06:24:39.107Z,77.06
2023-04-11T06:26:11.562Z,77.62
2023-04-11T06:27:43.803Z,78.55
2023-04-11T06:29:16.004Z,78.43
2023-04-11T06:30:48.150Z,78.09
2023-04-11T06:32:20.522Z,78.78
2023-04-11T06:33:52.689Z,80.28
2023-04-11T06:35:27.500Z,78.33
2023-04-11T06:36:59.709Z,78.64
2023-04-11T06:38:31.888Z,78.04
2023-04-11T06:40:06.192Z,77.29
2023-04-11T06:41:38.283Z,76.60
2023-04-11T06:43:10.441Z,78.48
2023-04-11T06:44:42.595Z,77.13
2023-04-11T06:46:14.738Z,76.11
2023-04-11T06:47:46.891Z,75.88
2023-04-11T06:49:19.436Z,74.72
2023-04-11T06:50:51.559Z,75.01
2023-04-11T06:52:24.324Z,75.58
2023-04-11T06:53:57.719Z,77.79
2023-04-11T06:55:29.841Z,78.29
2023-04-11T06:57:02.680Z,78.98
2023-04-11T06:58:34.729Z,78.61
2023-04-11T07:00:08.436Z,79.11
2023-04-11T07:01:40.779Z,76.92
2023-04-11T07:03:14.480Z,78.73
2023-04-11T07:04:46.968Z,79.22
2023-04-11T07:06:20.250Z,78.95
2023-04-11T07:07:52.462Z,78.66
2023-04-11T07:09:24.542Z,75.84
2023-04-11T07:10:56.727Z,75.54
2023-04-11T07:12:28.857Z,76.20
2023-04-11T07:14:01.454Z,76.48
2023-04-11T07:15:33.547Z,75.18
2023-04-11T07:17:05.728Z,74.47
2023-04-11T07:18:37.956Z,74.33
2023-04-11T07:20:11.744Z,74.56
2023-04-11T07:21:43.998Z,73.48
2023-04-11T07:23:16.139Z,73.42
2023-04-11T07:24:52.496Z,73.07
2023-04-11T07:26:24.655Z,72.95
2023-04-11T07:27:57.480Z,73.59
2023-04-11T07:29:29.821Z,74.08
2023-04-11T07:31:02.055Z,73.29
2023-04-11T07:32:34.254Z,73.98
2023-04-11T07:34:06.824Z,73.74
2023-04-11T07:35:39.026Z,73.27
2023-04-11T07:37:11.569Z,72.92
2023-04-11T07:38:43.727Z,71.70
2023-04-11T07:40:16.078Z,70.88
2023-04-11T07:41:48.181Z,71.26
2023-04-11T07:43:20.519Z,71.57
2023-04-11T07:44:52.631Z,72.35
2023-04-11T07:46:25.074Z,72.43
2023-04-11T07:47:57.287Z,72.22
2023-04-11T07:49:29.458Z,71.93
2023-04-11T07:51:01.635Z,71.86
2023-04-11T07:52:33.777Z,72.27
2023-04-11T07:54:06.001Z,72.40
2023-04-11T07:58:59.131Z,70.95
2023-04-11T08:00:33.532Z,70.63
2023-04-11T08:02:08.432Z,69.69
2023-04-11T08:03:41.199Z,69.34
2023-04-11T08:05:13.623Z,70.54
2023-04-11T08:06:47.300Z,70.36
2023-04-11T08:08:19.666Z,70.17
2023-04-11T08:09:51.725Z,69.64
2023-04-11T08:11:23.851Z,69.38
2023-04-11T08:12:56.976Z,70.44
2023-04-11T08:14:29.123Z,68.95
2023-04-11T08:16:01.556Z,69.36
2023-04-11T08:17:38.229Z,67.49
2023-04-11T08:19:11.923Z,67.10
2023-04-11T08:20:44.033Z,66.80
2023-04-11T08:22:16.154Z,67.32
2023-04-11T08:23:48.368Z,68.54
2023-04-11T08:26:52.474Z,65.85
2023-04-11T08:28:25.091Z,66.29
2023-04-11T08:29:59.277Z,65.02
2023-04-11T08:31:32.772Z,64.19
2023-04-11T08:33:04.762Z,63.38
2023-04-11T08:34:36.990Z,65.80
2023-04-11T08:36:10.873Z,65.38
2023-04-11T08:37:44.830Z,63.75
2023-04-11T08:39:16.961Z,62.58
2023-04-11T08:40:49.168Z,64.52
2023-04-11T08:42:28.586Z,62.73
2023-04-11T08:44:01.215Z,62.25
2023-04-11T08:45:33.291Z,61.67
2023-04-11T08:47:06.431Z,63.29
2023-04-11T08:48:38.972Z,61.29
2023-04-11T08:50:11.402Z,59.76
2023-04-11T08:51:45.206Z,61.99
2023-04-11T08:53:19.329Z,60.81
2023-04-11T08:54:57.826Z,62.56
2023-04-11T08:56:32.737Z,62.50
2023-04-11T08:58:04.909Z,62.59
2023-04-11T08:59:37.058Z,61.29
2023-04-11T09:01:29.718Z,59.95
2023-04-11T09:03:03.991Z,60.90
2023-04-11T09:04:45.318Z,60.33
2023-04-11T09:06:18.420Z,60.25
2023-04-11T09:07:50.734Z,60.13
2023-04-11T09:09:31.021Z,59.51
2023-04-11T09:11:03.170Z,61.31
2023-04-11T09:12:35.340Z,60.09
2023-04-11T09:14:11.742Z,56.97
2023-04-11T09:15:43.979Z,56.90
2023-04-11T09:17:17.429Z,57.57
2023-04-11T09:18:49.613Z,59.28
2023-04-11T09:20:30.684Z,59.59
2023-04-11T09:22:06.451Z,60.47
2023-04-11T09:25:24.566Z,57.11
2023-04-11T09:27:11.270Z,57.83
2023-04-11T09:28:54.088Z,57.11
2023-04-11T09:30:27.360Z,58.27
2023-04-11T09:31:59.447Z,55.13
2023-04-11T09:33:32.074Z,56.48
2023-04-11T09:35:21.001Z,55.62
2023-04-11T09:36:57.030Z,54.03
2023-04-11T09:38:33.977Z,53.51
2023-04-11T09:40:06.724Z,54.46
2023-04-11T09:41:38.866Z,54.37
2023-04-11T09:43:10.985Z,53.61
2023-04-11T09:44:43.132Z,53.67
2023-04-11T09:46:19.041Z,54.53
2023-04-11T09:47:53.341Z,53.45
2023-04-11T09:49:25.560Z,53.55
2023-04-11T09:50:58.885Z,54.96
2023-04-11T09:52:32.623Z,51.09
2023-04-11T09:54:06.057Z,51.99
2023-04-11T09:55:39.603Z,49.69
2023-04-11T09:57:12.844Z,50.98
2023-04-11T09:58:45.067Z,51.14
2023-04-11T10:00:20.863Z,50.97
2023-04-11T10:01:53.867Z,51.02
2023-04-11T10:03:26.968Z,48.60
2023-04-11T10:05:00.797Z,47.83
2023-04-11T10:06:42.207Z,50.08
2023-04-11T10:08:33.989Z,49.56
2023-04-11T10:10:06.945Z,50.36
2023-04-11T10:11:45.833Z,49.21
2023-04-11T10:13:35.879Z,47.70
2023-04-11T10:15:11.187Z,49.60
2023-04-11T10:17:24.137Z,46.29
2023-04-11T10:18:56.646Z,47.77
2023-04-11T10:20:50.857Z,45.99
2023-04-11T10:22:41.809Z,45.70
2023-04-11T10:24:23.381Z,44.47
2023-04-11T10:25:56.982Z,44.66
2023-04-11T10:28:04.274Z,43.81
2023-04-11T10:29:51.407Z,42.75
2023-04-11T10:31:24.056Z,40.64
2023-04-11T10:33:12.874Z,41.02
2023-04-11T10:34:51.106Z,40.17
2023-04-11T10:36:23.235Z,41.01
2023-04-11T10:37:55.417Z,42.44
2023-04-11T10:39:52.635Z,41.02
2023-04-11T10:41:32.155Z,44.55
2023-04-11T10:43:21.204Z,43.55
2023-04-11T10:45:22.674Z,43.63
2023-04-11T10:46:56.152Z,42.13
2023-04-11T10:48:28.320Z,41.67
2023-04-11T10:50:00.992Z,42.00
2023-04-11T10:51:34.541Z,42.14
2023-04-11T10:53:07.866Z,43.96
2023-04-11T10:54:39.836Z,43.45
2023-04-11T10:56:12.015Z,41.89
2023-04-11T10:58:07.430Z,42.01
2023-04-11T10:59:39.462Z,42.11
2023-04-11T11:01:31.600Z,42.48
2023-04-11T11:03:15.897Z,41.88
2023-04-11T11:04:49.491Z,42.91
2023-04-11T11:06:21.878Z,41.42
2023-04-11T11:07:54.438Z,41.53
2023-04-11T11:09:29.135Z,42.93
2023-04-11T11:11:02.465Z,41.12
2023-04-11T11:12:34.458Z,40.50
2023-04-11T11:14:06.597Z,40.16
2023-04-11T11:15:38.916Z,41.10
2023-04-11T11:17:15.280Z,39.70
2023-04-11T11:18:49.916Z,42.31
2023-04-11T11:20:22.191Z,39.42
2023-04-11T11:21:54.427Z,41.06
2023-04-11T11:23:27.539Z,39.05
2023-04-11T11:25:10.707Z,40.67
2023-04-11T11:26:44.415Z,38.77
2023-04-11T11:28:16.570Z,39.77
2023-04-11T11:29:48.843Z,41.15
2023-04-11T11:31:21.240Z,40.47
2023-04-11T11:32:53.540Z,38.89
2023-04-11T11:34:30.426Z,41.79
2023-04-11T11:36:04.904Z,37.70
2023-04-11T11:37:37.078Z,37.43
2023-04-11T11:39:12.820Z,38.71
2023-04-11T11:40:47.009Z,39.03
2023-04-11T11:42:19.148Z,38.06
2023-04-11T11:43:51.420Z,38.28
2023-04-11T11:47:16.131Z,40.08
2023-04-11T11:49:05.628Z,39.97
2023-04-11T11:50:37.706Z,39.38
2023-04-11T11:52:11.170Z,38.71
2023-04-11T11:53:43.275Z,39.44
2023-04-11T11:55:18.648Z,39.58
2023-04-11T11:56:55.058Z,39.09
2023-04-11T11:58:27.772Z,39.83
2023-04-11T12:00:02.168Z,40.42
2023-04-11T12:01:35.517Z,38.66
2023-04-11T12:03:10.201Z,38.68
2023-04-11T12:04:42.823Z,38.50
2023-04-11T12:06:16.528Z,38.99
2023-04-11T14:08:21.038Z,34.34
2023-04-11T14:09:53.146Z,33.69
2023-04-11T14:11:25.295Z,32.97
2023-04-11T14:12:57.555Z,33.04
2023-04-11T14:14:29.771Z,33.34
2023-04-11T14:16:08.798Z,33.75
2023-04-11T14:17:44.327Z,32.66
2023-04-11T14:19:16.885Z,33.22
2023-04-11T14:20:49.190Z,33.70
2023-04-11T14:22:21.611Z,32.80
2023-04-11T14:23:53.943Z,32.30
2023-04-11T14:25:26.103Z,32.66
2023-04-11T14:26:58.570Z,32.96
2023-04-11T14:28:30.714Z,33.58
2023-04-11T14:30:02.846Z,34.34
2023-04-11T14:31:36.412Z,33.29
2023-04-11T14:33:08.818Z,33.16
2023-04-11T14:34:41.148Z,33.45
2023-04-11T14:36:16.656Z,33.82
2023-04-11T14:37:49.896Z,34.83
2023-04-11T14:39:22.066Z,34.41
2023-04-11T14:40:54.282Z,35.35
2023-04-11T14:42:26.421Z,34.60
2023-04-11T14:43:58.754Z,35.44
2023-04-11T14:45:31.164Z,34.89
2023-04-11T14:47:03.264Z,35.93
2023-04-11T14:48:35.605Z,36.07
2023-04-11T14:50:08.570Z,35.96
2023-04-11T14:51:40.958Z,36.24
2023-04-11T14:53:13.117Z,36.89
2023-04-11T14:54:45.278Z,36.18
2023-04-11T14:56:17.458Z,36.92
2023-04-11T14:57:52.816Z,36.64
2023-04-11T14:59:25.062Z,36.33
2023-04-11T15:00:57.274Z,35.73
2023-04-11T15:02:31.037Z,35.90
2023-04-11T15:04:03.457Z,37.09
2023-04-11T15:05:35.571Z,37.69
2023-04-11T15:07:08.492Z,37.74
2023-04-11T15:08:40.788Z,36.75
2023-04-11T15:10:14.193Z,37.08
2023-04-11T15:11:46.800Z,37.12
2023-04-11T15:13:18.956Z,37.64
2023-04-11T15:14:51.068Z,37.41
2023-04-11T15:16:23.605Z,36.95
2023-04-11T15:18:21.726Z,36.86
2023-04-11T15:19:53.834Z,36.37
2023-04-11T15:21:25.934Z,36.66
2023-04-11T15:22:58.009Z,36.91
2023-04-11T15:24:30.118Z,37.53
2023-04-11T15:26:03.414Z,37.25
2023-04-11T15:27:35.420Z,36.02
2023-04-11T15:29:10.935Z,35.83
2023-04-11T15:30:51.369Z,36.58
2023-04-11T15:32:23.542Z,36.61
2023-04-11T15:33:58.457Z,36.02
2023-04-11T15:35:30.799Z,36.27
2023-04-11T15:37:02.943Z,36.12
2023-04-11T15:38:36.301Z,36.04
2023-04-11T15:40:10.863Z,36.44
2023-04-11T15:41:42.987Z,36.37
2023-04-11T15:43:15.230Z,36.30
2023-04-11T15:44:47.382Z,35.98
2023-04-11T15:46:19.543Z,36.64
2023-04-11T15:47:51.874Z,35.43
2023-04-11T15:49:24.014Z,35.55
2023-04-11T15:50:56.120Z,35.39
2023-04-11T15:52:28.623Z,35.78
2023-04-11T15:54:00.883Z,36.15
2023-04-11T15:55:37.061Z,36.62
2023-04-11T15:57:09.286Z,36.85
2023-04-11T15:58:42.377Z,37.30
2023-04-11T16:00:15.335Z,37.51
2023-04-11T16:01:47.511Z,36.90
2023-04-11T16:03:19.912Z,36.92
2023-04-11T16:04:54.131Z,36.67
2023-04-11T16:06:26.609Z,36.03
2023-04-11T16:07:59.081Z,36.72
2023-04-11T16:09:31.372Z,36.56
2023-04-11T16:11:03.741Z,36.44
2023-04-11T16:12:36.902Z,36.70
2023-04-11T16:14:09.018Z,37.33
2023-04-11T16:15:41.359Z,37.73
2023-04-11T16:17:15.903Z,37.98
2023-04-11T16:18:47.929Z,37.82
2023-04-11T16:20:21.341Z,38.44
2023-04-11T16:21:54.447Z,38.20
2023-04-11T16:23:26.589Z,38.19
2023-04-11T16:24:58.753Z,38.78
2023-04-11T16:26:30.927Z,38.86
2023-04-11T16:28:03.103Z,38.55
2023-04-11T16:29:35.235Z,38.55
2023-04-11T16:31:07.774Z,38.72
2023-04-11T16:32:39.855Z,39.01
2023-04-11T16:34:12.247Z,39.29
2023-04-11T16:35:44.559Z,39.26
2023-04-11T16:37:16.872Z,39.90
2023-04-11T16:38:50.198Z,39.94
2023-04-11T16:40:22.268Z,40.00
2023-04-11T16:41:55.922Z,40.28
2023-04-11T16:43:28.409Z,40.80
2023-04-11T16:45:00.661Z,41.24
2023-04-11T16:46:33.142Z,41.33
2023-04-11T16:48:06.416Z,41.99
2023-04-11T16:49:38.567Z,42.46
2023-04-11T16:51:11.901Z,42.69
2023-04-11T16:52:43.980Z,42.63
2023-04-11T16:54:16.719Z,43.12
2023-04-11T16:55:48.877Z,42.94
2023-04-11T16:57:21.161Z,43.15
2023-04-11T16:58:53.312Z,43.24
2023-04-11T17:00:25.738Z,43.13
2023-04-11T17:01:58.029Z,43.14
2023-04-11T17:03:30.539Z,43.72
2023-04-11T17:05:02.857Z,43.87
2023-04-11T17:06:35.072Z,43.79
2023-04-11T17:08:07.424Z,44.05
2023-04-11T17:09:39.530Z,44.13
2023-04-11T17:11:11.922Z,43.90
2023-04-11T17:12:44.073Z,43.96
2023-04-11T17:14:16.686Z,43.81
2023-04-11T17:15:48.881Z,44.46
2023-04-11T17:17:21.328Z,44.42
2023-04-11T17:18:53.569Z,43.96
2023-04-11T17:20:25.655Z,44.06
2023-04-11T17:21:57.897Z,43.62
2023-04-11T17:23:41.956Z,44.01
2023-04-11T17:25:15.506Z,44.16
2023-04-11T17:26:47.736Z,44.03
2023-04-11T17:28:20.929Z,43.80
2023-04-11T17:29:53.165Z,43.54
2023-04-11T17:31:28.024Z,43.11
2023-04-11T17:33:00.399Z,43.07
2023-04-11T17:34:32.575Z,43.38
2023-04-11T17:36:05.699Z,43.85
2023-04-11T17:37:37.816Z,43.51
2023-04-11T17:39:11.796Z,43.71
2023-04-11T17:40:44.155Z,43.70
2023-04-11T17:42:16.612Z,43.86
2023-04-11T17:43:49.022Z,44.21
2023-04-11T17:45:22.009Z,44.20
2023-04-11T17:46:54.647Z,44.03
2023-04-11T17:48:26.886Z,43.79
2023-04-11T17:49:59.046Z,43.50
2023-04-11T17:51:31.832Z,43.71
2023-04-11T17:53:05.193Z,44.16
2023-04-11T17:54:37.219Z,44.20
2023-04-11T17:56:09.415Z,44.16
2023-04-11T17:57:41.784Z,44.42
2023-04-11T17:59:14.244Z,44.82
2023-04-11T18:00:55.657Z,44.71
2023-04-11T18:02:29.851Z,44.72
2023-04-11T18:04:02.498Z,44.83
2023-04-11T18:05:37.563Z,45.32
2023-04-11T18:07:09.711Z,45.32
2023-04-11T18:10:28.663Z,45.66
2023-04-11T18:12:01.210Z,45.83
2023-04-11T18:13:33.320Z,46.01
2023-04-11T18:15:09.129Z,46.04
2023-04-11T18:16:41.308Z,46.26
2023-04-11T18:18:13.433Z,46.37
2023-04-11T18:19:45.769Z,46.79
2023-04-11T18:21:18.078Z,46.66
2023-04-11T18:22:56.560Z,46.51
2023-04-11T18:24:28.663Z,47.09
2023-04-11T18:26:01.032Z,47.36
2023-04-11T18:27:34.166Z,47.54
2023-04-11T18:29:06.434Z,47.68
2023-04-11T18:30:38.573Z,47.61
2023-04-11T18:32:10.717Z,47.91
2023-04-11T18:33:45.495Z,48.29
2023-04-11T18:35:18.709Z,48.27
2023-04-11T18:36:51.945Z,48.44
2023-04-11T18:38:24.098Z,48.27
2023-04-11T18:39:56.601Z,48.88
2023-04-11T18:41:28.779Z,48.88
2023-04-11T18:43:01.086Z,49.07
2023-04-11T18:44:34.172Z,49.17
2023-04-11T18:46:08.330Z,49.07
2023-04-11T18:47:45.429Z,49.13
2023-04-11T18:49:18.061Z,49.25
2023-04-11T18:51:00.412Z,49.22
2023-04-11T18:52:32.935Z,49.76
2023-04-11T18:54:05.561Z,49.46
2023-04-11T18:55:38.168Z,49.84
2023-04-11T18:57:13.179Z,49.78
2023-04-11T18:58:47.915Z,49.95
2023-04-11T19:00:21.846Z,50.03
2023-04-11T19:01:54.491Z,50.25
2023-04-11T19:03:27.020Z,50.58
2023-04-11T19:04:59.721Z,50.72
2023-04-11T19:06:31.957Z,50.71
2023-04-11T19:08:04.285Z,50.94
2023-04-11T19:09:36.471Z,51.10
2023-04-11T19:11:08.659Z,50.94
2023-04-11T19:12:40.871Z,51.15
2023-04-11T19:14:13.017Z,51.50
2023-04-11T19:15:46.562Z,51.52
2023-04-11T19:17:19.175Z,51.75
2023-04-11T19:18:51.530Z,51.82
2023-04-11T19:20:26.921Z,51.82
2023-04-11T19:21:59.101Z,51.84
2023-04-11T19:25:16.201Z,52.05
2023-04-11T19:26:48.424Z,52.00
2023-04-11T19:28:20.597Z,52.02
2023-04-11T19:29:52.695Z,52.28
2023-04-11T19:31:27.761Z,52.27
2023-04-11T19:32:59.900Z,52.05
2023-04-11T19:34:35.234Z,52.54
2023-04-11T19:36:07.518Z,52.41
2023-04-11T19:37:40.357Z,52.59
2023-04-11T19:39:12.560Z,52.54
2023-04-11T19:40:44.678Z,52.62
2023-04-11T19:42:16.980Z,52.62
2023-04-11T19:43:49.212Z,52.76
2023-04-11T19:45:22.488Z,52.93
2023-04-11T19:46:54.689Z,52.66
2023-04-11T19:48:27.250Z,53.10
2023-04-11T19:50:01.354Z,52.99
2023-04-11T19:51:33.616Z,52.97
2023-04-11T19:53:05.949Z,53.13
2023-04-11T19:54:38.446Z,53.07
2023-04-11T19:56:11.232Z,53.37
2023-04-11T19:57:44.071Z,53.13
2023-04-11T19:59:16.497Z,53.40
2023-04-11T20:00:48.788Z,53.24
2023-04-11T20:02:21.653Z,53.13
2023-04-11T20:03:57.237Z,53.36
2023-04-11T20:05:32.370Z,53.47
2023-04-11T20:07:04.707Z,53.48
2023-04-11T20:08:38.531Z,53.64
2023-04-11T20:10:11.610Z,53.43
2023-04-11T20:11:47.426Z,53.58
2023-04-11T20:13:19.601Z,53.43
2023-04-11T20:14:51.723Z,53.70
2023-04-11T20:16:25.637Z,53.55
2023-04-11T20:17:58.199Z,53.80
2023-04-11T20:19:32.804Z,53.85
2023-04-11T20:21:06.664Z,53.86
2023-04-11T20:22:40.673Z,54.03
2023-04-11T20:24:12.853Z,54.06
2023-04-11T20:25:44.948Z,53.88
2023-04-11T20:27:17.141Z,53.89
2023-04-11T20:30:21.483Z,53.89
2023-04-11T20:31:53.664Z,53.88
2023-04-11T20:33:27.027Z,53.85
2023-04-11T20:34:59.285Z,53.75
2023-04-11T20:36:32.095Z,54.14
2023-04-11T20:38:04.390Z,54.15
2023-04-11T20:39:36.887Z,54.27
2023-04-11T20:41:09.238Z,54.11
2023-04-11T20:42:43.077Z,54.11
2023-04-11T20:44:19.474Z,54.20
2023-04-11T20:45:51.738Z,54.36
2023-04-11T20:47:24.884Z,53.84
2023-04-11T20:48:57.139Z,53.88
2023-04-11T20:50:33.695Z,53.88
2023-04-11T20:52:05.850Z,53.92
2023-04-11T20:53:38.102Z,54.22
2023-04-11T20:55:11.215Z,54.05
2023-04-11T20:56:43.753Z,54.01
2023-04-11T20:58:18.936Z,54.01
2023-04-11T20:59:51.083Z,54.12
2023-04-11T21:01:23.210Z,53.91
2023-04-11T21:02:55.456Z,54.11
2023-04-11T21:04:28.647Z,54.11
2023-04-11T21:06:00.890Z,54.21
2023-04-11T21:07:33.180Z,54.53
2023-04-11T21:09:06.119Z,54.46
2023-04-11T21:10:38.384Z,54.35
2023-04-11T21:12:10.757Z,54.59
2023-04-11T21:13:43.013Z,54.41
2023-04-11T21:15:15.205Z,54.84
2023-04-11T21:16:47.382Z,54.93
2023-04-11T21:18:19.519Z,54.85
2023-04-11T21:19:51.680Z,55.09
2023-04-11T21:21:23.871Z,55.50
2023-04-11T21:22:56.142Z,55.41
2023-04-11T21:24:28.271Z,55.42
2023-04-11T21:26:00.370Z,55.43
2023-04-11T21:27:32.696Z,55.67
2023-04-11T21:29:04.775Z,55.86
2023-04-11T21:30:36.849Z,55.82
2023-04-11T21:32:08.892Z,55.91
2023-04-11T21:33:41.085Z,56.22
2023-04-11T21:35:15.536Z,56.30
2023-04-11T21:36:47.610Z,56.28
2023-04-11T21:38:19.777Z,56.22
2023-04-11T21:39:55.101Z,56.30
2023-04-11T21:41:29.554Z,56.22
2023-04-11T21:43:01.810Z,56.48
2023-04-11T21:44:34.018Z,56.63
2023-04-11T21:46:06.337Z,56.89
2023-04-11T21:47:38.615Z,56.96
2023-04-11T21:49:11.423Z,57.16
2023-04-11T21:50:45.591Z,57.22
2023-04-11T21:52:17.731Z,57.04
2023-04-11T21:53:49.923Z,57.44
2023-04-11T21:55:22.177Z,57.44
2023-04-11T21:56:54.324Z,57.75
2023-04-11T21:58:29.891Z,58.10
2023-04-11T22:00:02.608Z,57.52
2023-04-11T22:01:34.775Z,58.02
2023-04-11T22:03:08.125Z,58.22
2023-04-11T22:04:51.679Z,58.80
2023-04-11T22:06:32.940Z,58.56
2023-04-11T22:08:15.480Z,58.65
2023-04-11T22:09:47.623Z,58.75
2023-04-11T22:11:20.788Z,58.85
2023-04-11T22:12:54.865Z,59.04
2023-04-11T22:14:27.922Z,59.25
2023-04-11T22:16:05.492Z,59.13
2023-04-11T22:17:39.019Z,59.65
2023-04-11T22:19:14.199Z,59.60
2023-04-11T22:20:46.494Z,59.67
2023-04-11T22:22:19.156Z,60.05
2023-04-11T22:23:56.052Z,59.89